Sand Creek, Michigan
Current Conditions -  °F | °C
As of 3:53 PM on Saturday 25 Oct 2014 (Local Time) from KADG Reporting Station
Clear Clear  
Wind Chill: 69°   Ceiling: Unl
Heat Index: 69°   Visibility: 10mi
Dew Point: 40°   Wind: 17mph
Humidity: 35%   Direction: 290°WNW
Pressure: 29.79"   Gusts: 29mph
Location:  41.83°N, 84.1°W
Report Text: KADG 251953Z AUTO 29015G25KT 10SM CLR 21/04 A2979 RMK AO2 PK WND 27026/1920 SLP090 T02060044
Loading
Personal Weather Stations






























Interactive Weather Map New forecast layout! Learn more

10-Day Weather Forecast

Advertisements
Track Severe Weather on mobile